createdAt,value
2023-04-08T05:42:26.864Z,4.95
2023-04-08T05:45:33.491Z,5.55
2023-04-08T05:48:38.000Z,5.30
2023-04-08T05:51:44.259Z,5.85
2023-04-08T05:54:48.275Z,6.00
2023-04-08T05:57:56.453Z,6.40
2023-04-08T06:01:00.398Z,5.35
2023-04-08T06:04:06.996Z,5.95
2023-04-08T06:07:11.396Z,6.15
2023-04-08T06:10:17.596Z,6.15
2023-04-08T06:13:25.106Z,6.80
2023-04-08T06:16:31.132Z,6.43
2023-04-08T06:19:35.123Z,6.65
2023-04-08T06:22:41.167Z,7.68
2023-04-08T06:25:45.763Z,8.57
2023-04-08T06:28:53.747Z,9.13
2023-04-08T06:32:00.871Z,9.10
2023-04-08T06:35:08.412Z,9.23
2023-04-08T06:38:12.598Z,9.35
2023-04-08T06:41:18.832Z,9.60
2023-04-08T06:44:24.856Z,8.98
2023-04-08T06:47:31.150Z,11.10
2023-04-08T06:50:35.513Z,9.60
2023-04-08T06:53:41.571Z,9.25
2023-04-08T06:56:45.536Z,9.05
2023-04-08T06:59:54.552Z,8.50
2023-04-08T07:02:58.509Z,9.50
2023-04-08T07:06:06.293Z,9.82
2023-04-08T07:09:11.100Z,9.48
2023-04-08T07:12:17.433Z,9.95
2023-04-08T07:15:23.329Z,10.15
2023-04-08T07:18:29.280Z,11.50
2023-04-08T07:24:42.369Z,9.50
2023-04-08T07:27:46.373Z,10.18
2023-04-08T07:30:54.823Z,9.18
2023-04-08T07:33:58.985Z,9.93
2023-04-08T07:37:05.304Z,9.65
2023-04-08T07:40:10.921Z,9.52
2023-04-08T07:43:17.176Z,9.35
2023-04-08T07:46:23.402Z,9.63
2023-04-08T07:49:29.849Z,9.00
2023-04-08T07:52:34.242Z,9.13
2023-04-08T07:55:41.969Z,9.68
2023-04-08T07:58:46.303Z,10.50
2023-04-08T08:01:54.878Z,9.93
2023-04-08T08:04:59.192Z,9.25
2023-04-08T08:08:07.068Z,9.57
2023-04-08T08:11:11.347Z,9.63
2023-04-08T08:14:17.578Z,9.30
2023-04-08T08:17:25.040Z,8.82
2023-04-08T08:20:32.464Z,8.90
2023-04-08T08:26:44.626Z,9.05
2023-04-08T08:29:48.561Z,8.95
2023-04-08T08:32:58.645Z,9.80
2023-04-08T08:36:04.148Z,9.10
2023-04-08T08:39:10.316Z,9.77
2023-04-08T08:42:21.897Z,9.40
2023-04-08T08:45:28.210Z,8.93
2023-04-08T08:48:36.315Z,9.35
2023-04-08T08:51:43.233Z,9.02
2023-04-08T08:54:47.622Z,9.50
2023-04-08T08:57:54.086Z,9.50
2023-04-08T09:00:58.146Z,9.57
2023-04-08T09:04:16.042Z,10.43
2023-04-08T09:07:25.940Z,9.95
2023-04-08T09:10:31.883Z,9.57
2023-04-08T09:16:45.009Z,8.43
2023-04-08T09:20:11.824Z,8.43
2023-04-08T09:23:18.403Z,8.60
2023-04-08T09:26:26.956Z,8.05
2023-04-08T09:29:35.927Z,8.13
2023-04-08T09:32:49.582Z,8.55
2023-04-08T09:35:57.979Z,9.45
2023-04-08T09:39:01.983Z,10.02
2023-04-08T09:42:13.372Z,10.32
2023-04-08T09:45:18.490Z,9.85
2023-04-08T09:48:29.570Z,11.75
2023-04-08T09:51:41.928Z,11.80
2023-04-08T09:54:56.542Z,11.13
2023-04-08T09:58:03.715Z,12.07
2023-04-08T10:01:11.581Z,12.35
2023-04-08T10:04:20.223Z,11.93
2023-04-08T10:07:29.027Z,12.88
2023-04-08T10:10:33.435Z,13.30
2023-04-08T10:13:39.596Z,12.90
2023-04-08T10:16:43.676Z,13.40
2023-04-08T10:19:49.855Z,13.48
2023-04-08T10:22:55.931Z,14.05
2023-04-08T10:26:01.896Z,13.48
2023-04-08T10:32:31.164Z,11.20
2023-04-08T10:35:41.344Z,12.68
2023-04-08T10:38:49.268Z,12.80
2023-04-08T10:41:53.360Z,13.65
2023-04-08T10:45:03.316Z,13.48
2023-04-08T10:48:18.050Z,13.27
2023-04-08T10:51:24.561Z,13.82
2023-04-08T10:54:30.610Z,12.30
2023-04-08T10:57:36.719Z,11.90
2023-04-08T11:00:42.079Z,11.52
2023-04-08T11:03:48.594Z,12.50
2023-04-08T11:06:53.149Z,12.02
2023-04-08T11:10:05.566Z,11.25
2023-04-08T11:13:10.884Z,13.65
2023-04-08T11:16:18.592Z,10.60
2023-04-08T11:19:22.972Z,12.63
2023-04-08T11:22:30.536Z,11.73
2023-04-08T11:25:37.072Z,12.38
2023-04-08T11:28:43.278Z,13.23
2023-04-08T11:31:49.132Z,12.52
2023-04-08T11:34:55.244Z,13.23
2023-04-08T11:37:59.764Z,14.45
2023-04-08T11:41:07.858Z,14.60
2023-04-08T11:44:11.945Z,13.60
2023-04-08T11:47:17.938Z,13.35
2023-04-08T11:53:31.600Z,11.35
2023-04-08T11:59:52.219Z,11.40
2023-04-08T12:02:56.584Z,11.35
2023-04-08T12:06:04.013Z,12.23
2023-04-08T12:09:07.946Z,11.98
2023-04-08T12:12:16.398Z,12.55
2023-04-08T12:15:20.578Z,13.18
2023-04-08T12:18:26.570Z,11.93
2023-04-08T12:24:37.919Z,12.43
2023-04-08T12:30:49.594Z,10.73
2023-04-08T12:36:59.851Z,11.00
2023-04-08T12:40:03.998Z,10.75
2023-04-08T12:43:12.263Z,10.38
2023-04-08T12:46:16.406Z,10.50
2023-04-08T12:49:23.454Z,9.65
2023-04-08T12:52:27.701Z,9.45
2023-04-08T12:55:33.837Z,9.63
2023-04-08T12:58:40.164Z,10.40
2023-04-08T13:01:46.700Z,9.45
2023-04-08T13:04:51.795Z,9.20
2023-04-08T13:07:57.864Z,9.15
2023-04-08T13:14:09.657Z,7.85
2023-04-08T13:17:13.674Z,8.45
2023-04-08T13:20:20.157Z,8.80
2023-04-08T13:23:24.326Z,9.25
2023-04-08T13:26:30.304Z,10.18
2023-04-08T13:29:36.182Z,10.15
2023-04-08T13:32:42.534Z,10.85
2023-04-08T13:35:46.545Z,10.32
2023-04-08T13:38:53.195Z,10.82
2023-04-08T13:41:57.266Z,10.27
2023-04-08T13:45:05.678Z,11.20
2023-04-08T13:48:09.725Z,10.43
2023-04-08T13:51:16.054Z,10.10
2023-04-08T13:54:20.025Z,10.45
2023-04-08T13:57:26.262Z,9.70
2023-04-08T14:03:38.250Z,10.88
2023-04-08T14:06:43.278Z,10.43
2023-04-08T14:09:49.482Z,10.88
2023-04-08T14:12:53.911Z,11.35
2023-04-08T14:16:02.646Z,10.63
2023-04-08T14:19:06.646Z,11.57
2023-04-08T14:22:12.917Z,10.80
2023-04-08T14:25:16.959Z,11.65
2023-04-08T14:28:22.944Z,10.93
2023-04-08T14:34:34.729Z,11.52
